createdAt,value
2022-10-19T00:00:27.564Z,69.43
2022-10-19T00:01:27.509Z,69.43
2022-10-19T00:02:27.569Z,69.43
2022-10-19T00:03:27.492Z,69.43
2022-10-19T00:04:27.502Z,69.43
2022-10-19T00:05:27.482Z,69.43
2022-10-19T00:06:27.479Z,69.43
2022-10-19T00:07:27.448Z,69.53
2022-10-19T00:08:27.432Z,69.53
2022-10-19T00:09:27.420Z,69.73
2022-10-19T00:10:27.410Z,69.84
2022-10-19T00:11:27.524Z,69.84
2022-10-19T00:12:27.411Z,69.53
2022-10-19T00:13:27.374Z,69.80
2022-10-19T00:14:27.401Z,69.63
2022-10-19T00:15:27.345Z,69.73
2022-10-19T00:16:27.412Z,69.90
2022-10-19T00:17:27.340Z,69.90
2022-10-19T00:18:27.318Z,70.01
2022-10-19T00:19:27.305Z,69.80
2022-10-19T00:20:27.320Z,69.90
2022-10-19T00:21:27.287Z,69.80
2022-10-19T00:22:27.275Z,69.80
2022-10-19T00:23:27.284Z,68.88
2022-10-19T00:24:27.248Z,69.19
2022-10-19T00:25:27.234Z,69.90
2022-10-19T00:26:27.228Z,69.80
2022-10-19T00:27:27.279Z,69.70
2022-10-19T00:28:27.321Z,69.19
2022-10-19T00:29:27.227Z,69.70
2022-10-19T00:30:27.176Z,69.70
2022-10-19T00:31:27.171Z,69.70
2022-10-19T00:32:27.151Z,68.99
2022-10-19T00:33:27.154Z,69.90
2022-10-19T00:34:27.150Z,69.70
2022-10-19T00:35:27.151Z,69.70
2022-10-19T00:36:27.109Z,69.19
2022-10-19T00:37:27.121Z,69.70
2022-10-19T00:38:27.110Z,69.70
2022-10-19T00:39:27.079Z,69.73
2022-10-19T00:40:27.067Z,69.80
2022-10-19T00:41:27.067Z,69.90
2022-10-19T00:42:27.040Z,69.84
2022-10-19T00:43:27.031Z,69.93
2022-10-19T00:44:27.037Z,69.73
2022-10-19T00:45:27.005Z,69.43
2022-10-19T00:46:26.995Z,69.32
2022-10-19T00:47:27.029Z,69.32
2022-10-19T00:48:26.971Z,69.32
2022-10-19T00:49:26.961Z,69.43
2022-10-19T00:50:26.968Z,69.43
2022-10-19T00:51:26.935Z,69.56
2022-10-19T00:52:26.927Z,69.36
2022-10-19T00:53:26.947Z,69.76
2022-10-19T00:54:26.910Z,69.87
2022-10-19T00:55:26.895Z,69.67
2022-10-19T00:56:26.882Z,69.76
2022-10-19T00:57:26.868Z,69.36
2022-10-19T00:58:26.851Z,69.56
2022-10-19T00:59:26.881Z,70.38
2022-10-19T01:00:26.860Z,70.38
2022-10-19T01:01:26.910Z,69.46
2022-10-19T01:02:26.815Z,70.17
2022-10-19T01:03:26.801Z,70.48
2022-10-19T01:04:26.787Z,69.67
2022-10-19T01:05:26.815Z,70.17
2022-10-19T01:06:26.764Z,69.87
2022-10-19T01:07:26.826Z,70.10
2022-10-19T01:08:26.747Z,70.38
2022-10-19T01:09:26.738Z,70.17
2022-10-19T01:10:26.717Z,70.41
2022-10-19T01:11:26.758Z,70.41
2022-10-19T01:12:26.694Z,70.10
2022-10-19T01:13:26.704Z,70.31
2022-10-19T01:14:26.681Z,70.41
2022-10-19T01:15:26.687Z,70.61
2022-10-19T01:16:26.683Z,69.70
2022-10-19T01:17:26.676Z,70.61
2022-10-19T01:18:26.661Z,69.70
2022-10-19T01:19:26.620Z,69.80
2022-10-19T01:20:26.607Z,69.59
2022-10-19T01:21:26.604Z,69.90
2022-10-19T01:22:26.587Z,69.80
2022-10-19T01:23:26.592Z,69.83
2022-10-19T01:24:26.567Z,70.21
2022-10-19T01:25:26.568Z,69.80
2022-10-19T01:26:26.546Z,70.41
2022-10-19T01:27:26.527Z,69.90
2022-10-19T01:28:26.621Z,69.83
2022-10-19T01:29:26.527Z,69.83
2022-10-19T01:30:26.493Z,70.04
2022-10-19T01:31:26.487Z,69.83
2022-10-19T01:32:26.568Z,70.04
2022-10-19T01:33:26.463Z,70.34
2022-10-19T01:34:26.451Z,70.14
2022-10-19T01:35:26.480Z,70.14
2022-10-19T01:36:26.425Z,70.44
2022-10-19T01:37:34.511Z,69.83
2022-10-19T01:38:26.403Z,69.83
2022-10-19T01:39:34.320Z,69.83
2022-10-19T01:40:26.381Z,69.86
2022-10-19T01:41:26.391Z,70.27
2022-10-19T01:42:26.367Z,70.78
2022-10-19T01:43:26.469Z,70.89
2022-10-19T01:44:26.333Z,70.98
2022-10-19T01:45:26.323Z,70.98
2022-10-19T01:46:26.321Z,70.78
2022-10-19T01:47:26.330Z,70.98
2022-10-19T01:48:26.320Z,70.98
2022-10-19T01:49:26.275Z,70.89
2022-10-19T01:50:26.274Z,70.98
2022-10-19T01:51:26.262Z,70.78
2022-10-19T01:52:26.257Z,71.09
2022-10-19T01:53:26.284Z,70.98
2022-10-19T01:54:26.228Z,70.98
2022-10-19T01:55:26.230Z,70.98
2022-10-19T01:56:26.202Z,71.09
2022-10-19T01:57:26.185Z,70.98
2022-10-19T01:58:26.185Z,70.98
2022-10-19T01:59:26.201Z,70.98
2022-10-19T02:00:26.177Z,70.89
2022-10-19T02:01:26.144Z,70.75
2022-10-19T02:02:26.131Z,70.57
2022-10-19T02:03:26.116Z,70.68
2022-10-19T02:04:26.178Z,71.29
2022-10-19T02:05:26.132Z,71.29
2022-10-19T02:06:26.083Z,71.09
2022-10-19T02:07:26.077Z,71.50
2022-10-19T02:08:26.060Z,71.36
2022-10-19T02:09:26.091Z,71.39
2022-10-19T02:10:26.040Z,70.98
2022-10-19T02:11:26.055Z,71.56
2022-10-19T02:12:26.023Z,71.15
2022-10-19T02:13:26.003Z,71.06
2022-10-19T02:14:25.996Z,71.26
2022-10-19T02:15:25.985Z,71.36
2022-10-19T02:16:25.966Z,71.26
2022-10-19T02:17:26.014Z,71.36
2022-10-19T02:18:25.946Z,71.36
2022-10-19T02:19:25.941Z,71.06
2022-10-19T02:20:25.974Z,70.85
2022-10-19T02:21:25.909Z,71.15
2022-10-19T02:22:25.904Z,71.36
2022-10-19T02:23:25.900Z,71.36
2022-10-19T02:24:25.877Z,71.36
2022-10-19T02:25:25.873Z,71.06
2022-10-19T02:26:25.860Z,71.26
2022-10-19T02:27:25.839Z,70.95
2022-10-19T02:29:25.847Z,70.95
2022-10-19T02:30:25.868Z,71.56
2022-10-19T02:31:25.805Z,71.46
2022-10-19T02:32:25.785Z,71.77
2022-10-19T02:33:25.780Z,71.46
2022-10-19T02:34:25.759Z,71.56
2022-10-19T02:35:25.811Z,71.46
2022-10-19T02:36:25.772Z,71.36
2022-10-19T02:37:25.862Z,71.46
2022-10-19T02:38:25.757Z,71.36
2022-10-19T02:39:25.706Z,71.26
2022-10-19T02:40:25.694Z,71.36
2022-10-19T02:41:25.727Z,71.77
2022-10-19T02:42:25.671Z,71.77
2022-10-19T02:43:25.662Z,71.56
2022-10-19T02:44:25.647Z,71.46
2022-10-19T02:45:25.646Z,71.77
2022-10-19T02:46:25.634Z,71.84
2022-10-19T02:47:25.673Z,71.46
2022-10-19T02:48:25.610Z,71.43
2022-10-19T02:49:25.591Z,71.77
2022-10-19T02:50:25.579Z,71.67
2022-10-19T02:51:25.574Z,71.87
2022-10-19T02:52:25.588Z,71.97
2022-10-19T02:53:25.588Z,71.84
2022-10-19T02:54:25.543Z,71.94
2022-10-19T02:55:25.547Z,71.87
2022-10-19T02:56:25.514Z,71.87
2022-10-19T02:57:25.503Z,71.87
2022-10-19T02:58:25.491Z,71.87
2022-10-19T02:59:25.498Z,71.97
2022-10-19T03:00:25.480Z,71.87
2022-10-19T03:01:25.549Z,72.08
2022-10-19T03:02:25.452Z,71.97
2022-10-19T03:03:25.618Z,71.87
2022-10-19T03:04:25.426Z,71.87
2022-10-19T03:05:25.431Z,72.69
2022-10-19T03:06:25.402Z,72.58
2022-10-19T03:07:25.397Z,71.77
2022-10-19T03:08:25.406Z,72.99
2022-10-19T03:09:25.370Z,71.97
2022-10-19T03:10:25.360Z,72.79
2022-10-19T03:11:25.384Z,72.86
2022-10-19T03:12:25.341Z,72.89
2022-10-19T03:13:25.340Z,71.94
2022-10-19T03:14:25.316Z,72.55
2022-10-19T03:15:25.313Z,72.65
2022-10-19T03:16:25.290Z,72.28
2022-10-19T03:17:25.297Z,72.14
2022-10-19T03:18:25.272Z,72.34
2022-10-19T03:19:25.252Z,72.45
2022-10-19T03:20:25.242Z,72.45
2022-10-19T03:21:25.240Z,72.24
2022-10-19T03:22:25.219Z,72.34
2022-10-19T03:23:25.290Z,72.34
2022-10-19T03:24:25.224Z,72.34
2022-10-19T03:25:25.193Z,72.24
2022-10-19T03:26:25.178Z,72.24
2022-10-19T03:27:25.161Z,72.24
2022-10-19T03:28:25.162Z,72.34
2022-10-19T03:29:25.189Z,72.34
2022-10-19T03:30:25.128Z,72.45
2022-10-19T03:31:25.236Z,72.34
2022-10-19T03:32:25.109Z,72.14
2022-10-19T03:34:25.113Z,72.34
2022-10-19T03:35:25.089Z,72.34
2022-10-19T03:36:25.096Z,72.34
2022-10-19T03:37:25.052Z,72.45
2022-10-19T03:38:25.115Z,72.24
2022-10-19T03:39:25.030Z,72.24
2022-10-19T03:40:25.041Z,72.14
2022-10-19T03:41:25.039Z,72.24
2022-10-19T03:42:25.024Z,72.24
2022-10-19T03:43:25.000Z,72.24
2022-10-19T03:44:24.970Z,72.14
2022-10-19T03:45:24.955Z,72.45
2022-10-19T03:46:24.952Z,72.75
2022-10-19T03:47:24.946Z,73.10
2022-10-19T03:48:24.988Z,73.16
2022-10-19T03:49:24.909Z,73.36
2022-10-19T03:50:24.901Z,73.19
2022-10-19T03:51:24.901Z,73.16
2022-10-19T03:52:24.873Z,72.99
2022-10-19T03:53:24.954Z,73.06
2022-10-19T03:54:27.336Z,73.10
2022-10-19T03:55:24.844Z,73.10
2022-10-19T03:56:24.864Z,73.10
2022-10-19T03:57:24.823Z,73.10
2022-10-19T03:58:24.926Z,73.10
2022-10-19T03:59:24.810Z,73.19
2022-10-19T04:00:24.789Z,73.19
2022-10-19T04:01:24.846Z,73.19
2022-10-19T04:02:24.763Z,72.99
2022-10-19T04:03:24.989Z,72.99
2022-10-19T04:04:24.741Z,73.10
2022-10-19T04:05:24.757Z,73.10
2022-10-19T04:06:24.723Z,72.89
2022-10-19T04:07:24.730Z,72.99
2022-10-19T04:08:24.742Z,73.10
2022-10-19T04:09:24.684Z,73.19
2022-10-19T04:10:24.673Z,73.19
2022-10-19T04:11:24.675Z,73.30
2022-10-19T04:12:24.675Z,73.10
2022-10-19T04:13:24.638Z,73.19
2022-10-19T04:14:32.493Z,73.33
2022-10-19T04:15:25.622Z,73.50
2022-10-19T04:16:24.612Z,73.23
2022-10-19T04:17:24.614Z,73.64
2022-10-19T04:18:24.590Z,73.13
2022-10-19T04:19:24.579Z,73.23
2022-10-19T04:20:24.565Z,73.43
2022-10-19T04:21:24.553Z,73.64
2022-10-19T04:22:24.541Z,73.54
2022-10-19T04:23:24.547Z,73.43
2022-10-19T04:24:24.528Z,73.54
2022-10-19T04:25:24.513Z,73.43
2022-10-19T04:26:24.510Z,73.33
2022-10-19T04:27:24.501Z,73.33
2022-10-19T04:28:24.524Z,73.23
2022-10-19T04:29:27.862Z,73.43
2022-10-19T04:30:25.452Z,73.47
2022-10-19T04:31:24.436Z,73.77
2022-10-19T04:32:24.445Z,73.98
2022-10-19T04:33:24.417Z,73.98
2022-10-19T04:34:24.522Z,73.57
2022-10-19T04:35:24.565Z,73.98
2022-10-19T04:36:24.380Z,73.77
2022-10-19T04:37:24.374Z,74.08
2022-10-19T04:38:24.362Z,73.98
2022-10-19T04:39:24.414Z,74.08
2022-10-19T04:40:24.332Z,73.88
2022-10-19T04:41:24.341Z,74.08
2022-10-19T04:42:24.312Z,74.08
2022-10-19T04:43:24.319Z,74.01
2022-10-19T04:45:24.279Z,74.01
2022-10-19T04:46:24.270Z,74.08
2022-10-19T04:47:24.299Z,74.32
2022-10-19T04:48:24.275Z,73.91
2022-10-19T04:49:24.228Z,74.01
2022-10-19T04:50:24.219Z,73.91
2022-10-19T04:51:24.226Z,74.01
2022-10-19T04:52:24.193Z,73.91
2022-10-19T04:54:24.196Z,73.91
2022-10-19T04:55:24.166Z,73.91
2022-10-19T04:56:24.155Z,74.22
2022-10-19T04:57:24.151Z,74.11
2022-10-19T04:58:24.129Z,74.01
2022-10-19T04:59:24.160Z,73.91
2022-10-19T05:00:24.128Z,73.91
2022-10-19T05:01:24.161Z,73.91
2022-10-19T05:02:24.084Z,73.81
2022-10-19T05:03:24.141Z,73.81
2022-10-19T05:04:24.063Z,73.91
2022-10-19T05:05:24.188Z,74.01
2022-10-19T05:06:24.034Z,73.91
2022-10-19T05:07:24.028Z,73.91
2022-10-19T05:08:24.047Z,74.01
2022-10-19T05:09:24.007Z,73.71
2022-10-19T05:10:24.025Z,73.91
2022-10-19T05:11:23.996Z,73.91
2022-10-19T05:12:23.971Z,73.71
2022-10-19T05:13:23.957Z,73.91
2022-10-19T05:14:23.989Z,73.91
2022-10-19T05:15:23.959Z,74.01
2022-10-19T05:16:23.952Z,73.74
2022-10-19T05:17:24.012Z,73.74
2022-10-19T05:18:23.904Z,74.25
2022-10-19T05:19:23.890Z,73.94
2022-10-19T05:20:23.874Z,73.91
2022-10-19T05:21:23.873Z,74.11
2022-10-19T05:22:23.903Z,74.11
2022-10-19T05:23:23.878Z,74.32
2022-10-19T05:24:23.881Z,74.42
2022-10-19T05:25:23.820Z,74.22
2022-10-19T05:26:23.812Z,74.42
2022-10-19T05:27:23.795Z,74.42
2022-10-19T05:28:23.788Z,74.32
2022-10-19T05:29:23.788Z,74.01
2022-10-19T05:30:23.800Z,73.67
2022-10-19T05:31:23.752Z,74.22
2022-10-19T05:32:23.791Z,74.11
2022-10-19T05:33:23.727Z,74.08
2022-10-19T05:34:23.746Z,73.67
2022-10-19T05:35:23.764Z,73.98
2022-10-19T05:36:23.714Z,73.71
2022-10-19T05:37:23.691Z,73.98
2022-10-19T05:38:23.675Z,73.67
2022-10-19T05:39:23.670Z,73.57
2022-10-19T05:40:23.670Z,73.88
2022-10-19T05:41:23.723Z,73.88
2022-10-19T05:42:23.638Z,73.74
2022-10-19T05:43:23.617Z,73.88
2022-10-19T05:44:23.617Z,73.64
2022-10-19T05:45:23.600Z,73.94
2022-10-19T05:46:23.583Z,74.05
2022-10-19T05:47:26.235Z,73.94
2022-10-19T05:48:24.585Z,73.84
2022-10-19T05:49:23.555Z,73.74
2022-10-19T05:50:23.561Z,73.74
2022-10-19T05:51:23.530Z,73.91
2022-10-19T05:52:23.520Z,74.01
2022-10-19T05:53:23.536Z,73.91
2022-10-19T05:54:26.428Z,74.11
2022-10-19T05:55:23.486Z,74.01
2022-10-19T05:56:23.478Z,73.81
2022-10-19T05:57:23.465Z,73.71
2022-10-19T05:58:23.490Z,74.01
2022-10-19T05:59:23.497Z,74.01
2022-10-19T06:00:23.526Z,73.67
2022-10-19T06:01:23.415Z,73.77
2022-10-19T06:02:23.407Z,73.60
2022-10-19T06:03:23.391Z,73.81
2022-10-19T06:04:23.402Z,73.57
2022-10-19T06:05:23.392Z,73.77
2022-10-19T06:06:23.358Z,73.77
2022-10-19T06:07:23.371Z,73.77
2022-10-19T06:08:23.340Z,73.67
2022-10-19T06:09:23.322Z,73.47
2022-10-19T06:10:23.311Z,73.57
2022-10-19T06:11:23.422Z,73.88
2022-10-19T06:12:25.050Z,73.57
2022-10-19T06:13:23.293Z,73.94
2022-10-19T06:14:23.265Z,73.74
2022-10-19T06:15:23.258Z,73.64
2022-10-19T06:16:23.242Z,73.94
2022-10-19T06:17:23.273Z,73.77
2022-10-19T06:18:23.234Z,74.15
2022-10-19T06:19:23.261Z,73.64
2022-10-19T06:20:23.214Z,73.94
2022-10-19T06:21:23.187Z,74.15
2022-10-19T06:22:23.175Z,74.25
2022-10-19T06:23:23.431Z,74.25
2022-10-19T06:24:23.151Z,73.71
2022-10-19T06:25:23.142Z,73.60
2022-10-19T06:26:23.139Z,74.01
2022-10-19T06:27:23.227Z,73.87
2022-10-19T06:28:23.186Z,73.67
2022-10-19T06:29:23.116Z,73.63
2022-10-19T06:30:23.111Z,73.74
2022-10-19T06:31:23.070Z,73.97
2022-10-19T06:32:30.952Z,73.77
2022-10-19T06:33:23.050Z,73.63
2022-10-19T06:34:23.141Z,73.47
2022-10-19T06:35:23.070Z,73.77
2022-10-19T06:36:23.041Z,73.77
2022-10-19T06:37:23.095Z,74.21
2022-10-19T06:38:22.992Z,74.08
2022-10-19T06:39:23.029Z,74.41
2022-10-19T06:40:23.140Z,74.41
2022-10-19T06:41:23.132Z,74.32
2022-10-19T06:42:22.945Z,74.62
2022-10-19T06:43:22.929Z,74.72
2022-10-19T06:44:22.931Z,74.21
2022-10-19T06:45:22.905Z,74.35
2022-10-19T06:46:22.902Z,74.45
2022-10-19T06:47:22.929Z,74.25
2022-10-19T06:48:22.878Z,74.25
2022-10-19T06:49:22.886Z,74.62
2022-10-19T06:50:22.855Z,74.11
2022-10-19T06:51:22.854Z,74.28
2022-10-19T06:52:22.872Z,74.18
2022-10-19T06:53:22.868Z,74.18
2022-10-19T06:54:22.812Z,74.18
2022-10-19T06:55:22.803Z,74.18
2022-10-19T06:56:22.795Z,73.97
2022-10-19T06:57:22.776Z,74.15
2022-10-19T06:58:22.767Z,74.28
2022-10-19T06:59:22.783Z,74.08
2022-10-19T07:00:22.765Z,74.24
2022-10-19T07:01:22.839Z,74.28
2022-10-19T07:02:22.724Z,74.28
2022-10-19T07:03:22.706Z,74.28
2022-10-19T07:04:22.735Z,74.48
2022-10-19T07:05:22.714Z,74.48
2022-10-19T07:06:22.678Z,74.38
2022-10-19T07:07:22.656Z,74.18
2022-10-19T07:08:22.710Z,74.45
2022-10-19T07:10:37.824Z,73.39
2022-10-19T07:11:38.883Z,73.39
2022-10-19T07:12:37.784Z,73.43
2022-10-19T07:13:37.777Z,74.04
2022-10-19T07:14:37.774Z,74.01
2022-10-19T07:15:37.752Z,74.41
2022-10-19T07:16:37.804Z,74.21
2022-10-19T07:17:37.732Z,74.35
2022-10-19T07:18:37.771Z,74.24
2022-10-19T07:19:37.735Z,74.45
2022-10-19T07:20:37.717Z,74.24
2022-10-19T07:21:37.696Z,74.21
2022-10-19T07:22:37.707Z,74.31
2022-10-19T07:23:37.695Z,74.31
2022-10-19T07:24:37.647Z,74.21
2022-10-19T07:25:37.654Z,74.48
2022-10-19T07:26:37.635Z,74.18
2022-10-19T07:27:37.951Z,74.07
2022-10-19T07:28:37.626Z,73.94
2022-10-19T07:29:37.593Z,74.14
2022-10-19T07:30:37.603Z,74.04
2022-10-19T07:31:37.578Z,74.01
2022-10-19T07:32:37.560Z,74.01
2022-10-19T07:33:37.568Z,73.90
2022-10-19T07:34:37.562Z,74.10
2022-10-19T07:35:37.525Z,74.21
2022-10-19T07:36:37.518Z,73.90
2022-10-19T07:37:37.504Z,73.97
2022-10-19T07:38:37.497Z,74.07
2022-10-19T07:39:37.514Z,73.97
2022-10-19T07:40:37.483Z,73.77
2022-10-19T07:41:37.455Z,73.93
2022-10-19T07:42:37.504Z,73.63
2022-10-19T07:43:37.456Z,73.63
2022-10-19T07:44:37.433Z,74.24
2022-10-19T07:45:37.414Z,74.10
2022-10-19T07:46:37.441Z,73.90
2022-10-19T07:47:37.398Z,73.66
2022-10-19T07:48:37.379Z,73.86
2022-10-19T07:49:37.374Z,74.17
2022-10-19T07:50:37.363Z,74.17
2022-10-19T07:51:37.345Z,73.86
2022-10-19T07:52:37.428Z,74.33
2022-10-19T07:53:37.338Z,73.63
2022-10-19T07:54:37.316Z,73.29
2022-10-19T07:55:37.326Z,73.15
2022-10-19T07:56:37.285Z,73.46
2022-10-19T07:57:37.317Z,73.12
2022-10-19T07:58:37.299Z,73.22
2022-10-19T07:59:37.259Z,73.32
2022-10-19T08:00:37.329Z,72.88
2022-10-19T08:01:37.333Z,73.28
2022-10-19T08:02:54.676Z,73.19
2022-10-19T08:05:38.185Z,73.59
2022-10-19T08:06:37.182Z,73.99
2022-10-19T08:07:37.165Z,74.30
2022-10-19T08:08:37.961Z,74.23
2022-10-19T08:09:54.207Z,74.63
2022-10-19T08:12:52.365Z,74.67
2022-10-19T08:13:52.603Z,74.71
2022-10-19T08:14:53.334Z,74.81
2022-10-19T08:15:52.316Z,74.81
2022-10-19T08:18:57.278Z,74.51
2022-10-19T08:23:30.907Z,74.71
2022-10-19T08:24:31.021Z,75.11
2022-10-19T08:25:30.845Z,75.11
2022-10-19T08:26:32.221Z,75.38
2022-10-19T08:31:35.549Z,74.63
2022-10-19T08:34:16.650Z,75.34
2022-10-19T08:35:16.666Z,75.24
2022-10-19T08:36:16.627Z,75.01
2022-10-19T08:37:32.556Z,75.01
2022-10-19T08:38:17.607Z,75.21
2022-10-19T08:39:16.614Z,74.87
2022-10-19T08:40:16.582Z,74.77
2022-10-19T08:41:16.582Z,74.63
2022-10-19T08:42:16.562Z,74.29
2022-10-19T08:43:16.628Z,74.29
2022-10-19T08:44:16.543Z,74.46
2022-10-19T08:45:16.642Z,74.26
2022-10-19T08:46:16.520Z,74.36
2022-10-19T08:47:17.576Z,74.87
2022-10-19T08:48:16.494Z,74.76
2022-10-19T08:49:16.501Z,74.66
2022-10-19T08:50:16.519Z,74.26
2022-10-19T08:51:16.459Z,74.43
2022-10-19T08:52:16.460Z,74.43
2022-10-19T08:53:16.469Z,74.63
2022-10-19T08:54:16.428Z,74.43
2022-10-19T08:55:19.706Z,74.22
2022-10-19T08:56:26.841Z,74.12
2022-10-19T08:57:17.387Z,74.32
2022-10-19T08:58:16.384Z,74.63
2022-10-19T08:59:16.373Z,74.22
2022-10-19T09:00:16.362Z,74.69
2022-10-19T09:01:16.533Z,73.99
2022-10-19T09:02:16.744Z,74.69
2022-10-19T09:03:23.056Z,74.19
2022-10-19T09:06:13.531Z,74.19
2022-10-19T09:07:13.515Z,74.63
2022-10-19T09:08:17.595Z,74.63
2022-10-19T09:09:13.484Z,74.93
2022-10-19T09:17:13.797Z,74.83
2022-10-19T09:18:13.216Z,74.83
2022-10-19T09:19:13.419Z,74.73
2022-10-19T09:24:01.769Z,74.83
2022-10-19T09:25:01.609Z,74.73
2022-10-19T09:26:01.615Z,74.99
2022-10-19T09:27:01.735Z,74.26
2022-10-19T09:33:56.068Z,74.29
2022-10-19T09:34:56.053Z,74.38
2022-10-19T09:35:56.251Z,74.25
2022-10-19T09:38:38.325Z,73.91
2022-10-19T09:44:10.237Z,73.91
2022-10-19T09:45:10.271Z,73.98
2022-10-19T09:46:19.507Z,74.21
2022-10-19T09:47:13.674Z,74.28
2022-10-19T09:48:13.098Z,73.71
2022-10-19T09:49:10.235Z,74.18
2022-10-19T09:53:34.693Z,74.41
2022-10-19T09:54:34.628Z,74.21
2022-10-19T09:55:34.687Z,74.82
2022-10-19T09:56:34.621Z,74.75
2022-10-19T09:57:34.842Z,74.72
2022-10-19T09:58:34.588Z,74.65
2022-10-19T09:59:34.602Z,74.72
2022-10-19T10:00:34.569Z,74.62
2022-10-19T10:01:41.691Z,74.72
2022-10-19T10:02:36.156Z,75.15
2022-10-19T10:03:34.527Z,74.85
2022-10-19T10:04:34.544Z,75.19
2022-10-19T10:05:34.518Z,75.49
2022-10-19T10:06:34.510Z,75.05
2022-10-19T10:07:35.028Z,75.09
2022-10-19T10:08:38.305Z,74.79
2022-10-19T10:09:34.462Z,74.99
2022-10-19T10:10:34.442Z,74.75
2022-10-19T10:11:34.465Z,74.95
2022-10-19T10:12:34.855Z,74.92
2022-10-19T10:13:34.423Z,74.72
2022-10-19T10:14:34.408Z,74.72
2022-10-19T10:15:34.749Z,74.82
2022-10-19T10:16:34.382Z,74.58
2022-10-19T10:19:00.503Z,74.88
2022-10-19T10:20:00.805Z,74.92
2022-10-19T10:21:00.465Z,74.82
2022-10-19T10:22:00.453Z,75.32
2022-10-19T10:23:00.442Z,75.42
2022-10-19T10:24:00.644Z,75.32
2022-10-19T10:25:00.428Z,75.22
2022-10-19T10:26:00.418Z,75.32
2022-10-19T10:27:00.518Z,75.12
2022-10-19T10:28:00.382Z,75.32
2022-10-19T10:29:01.493Z,75.32
2022-10-19T10:30:01.490Z,75.32
2022-10-19T10:31:01.290Z,75.62
2022-10-19T10:32:00.341Z,75.42
2022-10-19T10:33:08.220Z,75.56
2022-10-19T10:34:10.726Z,75.32
2022-10-19T10:35:02.041Z,75.26
2022-10-19T10:36:00.298Z,75.35
2022-10-19T10:37:07.626Z,75.56
2022-10-19T10:38:00.276Z,75.35
2022-10-19T10:39:00.300Z,75.35
2022-10-19T10:40:03.690Z,75.15
2022-10-19T10:41:14.935Z,75.66
2022-10-19T10:42:00.316Z,76.06
2022-10-19T10:43:05.825Z,75.46
2022-10-19T10:44:03.744Z,75.56
2022-10-19T10:45:01.191Z,75.35
2022-10-19T10:46:00.172Z,75.56
2022-10-19T10:47:00.432Z,75.46
2022-10-19T10:48:00.220Z,75.32
2022-10-19T10:49:00.220Z,75.22
2022-10-19T10:50:00.551Z,75.46
2022-10-19T10:51:00.121Z,75.35
2022-10-19T10:52:00.110Z,75.42
2022-10-19T10:53:00.119Z,75.42
2022-10-19T10:54:00.257Z,75.42
2022-10-19T10:55:00.138Z,75.42
2022-10-19T10:56:00.116Z,75.32
2022-10-19T10:57:04.286Z,75.32
2022-10-19T10:58:01.049Z,75.59
2022-10-19T10:59:00.035Z,75.42
2022-10-19T11:00:00.050Z,75.29
2022-10-19T11:01:04.107Z,75.29
2022-10-19T11:02:03.083Z,75.18
2022-10-19T11:02:59.986Z,75.18
2022-10-19T11:03:59.969Z,75.29
2022-10-19T11:05:00.042Z,75.29
2022-10-19T11:05:59.958Z,75.18
2022-10-19T11:06:59.982Z,75.49
2022-10-19T11:08:00.085Z,75.18
2022-10-19T11:09:00.031Z,75.49
2022-10-19T11:09:59.913Z,75.29
2022-10-19T11:10:59.897Z,75.18
2022-10-19T11:11:59.904Z,75.29
2022-10-19T11:12:59.920Z,75.29
2022-10-19T11:13:59.862Z,75.49
2022-10-19T11:14:59.858Z,75.32
2022-10-19T11:16:00.436Z,75.42
2022-10-19T11:16:59.864Z,75.42
2022-10-19T11:17:59.811Z,75.18
2022-10-19T11:18:59.846Z,75.22
2022-10-19T11:19:59.822Z,75.29
2022-10-19T11:21:00.389Z,75.29
2022-10-19T11:22:02.480Z,75.29
2022-10-19T11:23:01.340Z,75.45
2022-10-19T11:23:59.747Z,75.29
2022-10-19T11:24:59.791Z,75.29
2022-10-19T11:25:59.724Z,75.25
2022-10-19T11:26:59.726Z,75.25
2022-10-19T11:27:59.727Z,75.15
2022-10-19T11:28:59.687Z,75.05
2022-10-19T11:29:59.677Z,75.15
2022-10-19T11:30:59.722Z,75.21
2022-10-19T11:31:59.663Z,75.25
2022-10-19T11:32:59.643Z,75.15
2022-10-19T11:33:59.630Z,75.35
2022-10-19T11:34:59.625Z,75.15
2022-10-19T11:35:59.609Z,75.15
2022-10-19T11:36:59.640Z,75.05
2022-10-19T11:38:17.959Z,75.25
2022-10-19T11:39:00.573Z,75.05
2022-10-19T11:39:59.567Z,75.25
2022-10-19T11:41:16.863Z,75.15
2022-10-19T11:42:00.598Z,75.09
2022-10-19T11:42:59.532Z,75.05
2022-10-19T11:43:59.568Z,74.55
2022-10-19T11:44:59.523Z,74.44
2022-10-19T11:45:59.493Z,74.95
2022-10-19T11:46:59.509Z,74.55
2022-10-19T11:47:59.498Z,74.61
2022-10-19T11:48:59.463Z,74.95
2022-10-19T11:49:59.527Z,74.95
2022-10-19T11:51:16.888Z,74.61
2022-10-19T11:52:00.454Z,75.01
2022-10-19T11:52:59.421Z,74.65
2022-10-19T11:53:59.433Z,74.55
2022-10-19T11:54:59.403Z,74.44
2022-10-19T11:55:59.382Z,75.05
2022-10-19T11:57:03.616Z,74.55
2022-10-19T11:58:00.352Z,74.74
2022-10-19T11:58:59.421Z,74.71
2022-10-19T12:00:08.287Z,74.44
2022-10-19T12:01:00.327Z,74.71
2022-10-19T12:01:59.596Z,74.74
2022-10-19T12:03:02.830Z,74.74
2022-10-19T12:03:59.296Z,74.44
2022-10-19T12:04:59.286Z,74.55
2022-10-19T12:05:59.325Z,74.35
2022-10-19T12:06:59.914Z,74.35
2022-10-19T12:07:59.248Z,74.35
2022-10-19T12:08:59.269Z,74.35
2022-10-19T12:09:59.225Z,74.04
2022-10-19T12:10:59.218Z,74.55
2022-10-19T12:11:59.273Z,74.11
2022-10-19T12:12:59.187Z,74.15
2022-10-19T12:13:59.198Z,74.04
2022-10-19T12:14:59.170Z,74.24
2022-10-19T12:15:59.181Z,74.04
2022-10-19T12:16:59.192Z,74.15
2022-10-19T12:17:59.147Z,74.28
2022-10-19T12:18:59.123Z,74.48
2022-10-19T12:19:59.111Z,74.38
2022-10-19T12:20:59.099Z,73.98
2022-10-19T12:21:59.091Z,74.48
2022-10-19T12:22:59.080Z,74.68
2022-10-19T12:23:59.166Z,74.62
2022-10-19T12:24:59.051Z,75.02
2022-10-19T12:25:59.045Z,74.52
2022-10-19T12:26:59.065Z,75.05
2022-10-19T12:27:59.018Z,75.26
2022-10-19T12:28:59.010Z,75.35
2022-10-19T12:29:59.051Z,75.15
2022-10-19T12:30:58.990Z,75.39
2022-10-19T12:31:58.994Z,75.39
2022-10-19T12:32:58.958Z,75.49
2022-10-19T12:33:58.955Z,75.49
2022-10-19T12:34:58.941Z,75.53
2022-10-19T12:35:58.968Z,75.73
2022-10-19T12:36:58.983Z,75.67
2022-10-19T12:37:58.901Z,75.53
2022-10-19T12:39:00.500Z,75.67
2022-10-19T12:39:58.878Z,75.76
2022-10-19T12:40:58.874Z,75.63
2022-10-19T12:41:58.890Z,75.43
2022-10-19T12:42:58.849Z,75.43
2022-10-19T12:43:58.958Z,75.33
2022-10-19T12:44:59.019Z,75.13
2022-10-19T12:45:58.814Z,75.43
2022-10-19T12:47:00.776Z,75.29
2022-10-19T12:47:58.835Z,75.39
2022-10-19T12:48:58.791Z,75.33
2022-10-19T12:49:58.768Z,75.09
2022-10-19T12:50:58.763Z,75.19
2022-10-19T12:51:58.758Z,74.58
2022-10-19T12:52:58.738Z,75.09
2022-10-19T12:53:58.776Z,74.69
2022-10-19T12:54:58.716Z,74.69
2022-10-19T12:55:58.730Z,74.65
2022-10-19T12:56:58.811Z,74.75
2022-10-19T12:57:58.680Z,74.75
2022-10-19T12:58:58.773Z,74.95
2022-10-19T12:59:58.724Z,74.69
2022-10-19T13:00:58.715Z,74.95
2022-10-19T13:02:05.408Z,74.99
2022-10-19T13:02:58.621Z,74.58
2022-10-19T13:03:58.656Z,74.58
2022-10-19T13:04:58.601Z,74.99
2022-10-19T13:05:58.634Z,74.99
2022-10-19T13:06:58.659Z,74.99
2022-10-19T13:07:58.570Z,74.99
2022-10-19T13:08:58.604Z,74.99
2022-10-19T13:09:58.543Z,75.13
2022-10-19T13:10:58.550Z,75.09
2022-10-19T13:11:58.600Z,75.09
2022-10-19T13:12:58.511Z,75.02
2022-10-19T13:13:58.498Z,75.13
2022-10-19T13:14:58.490Z,75.02
2022-10-19T13:15:58.625Z,75.13
2022-10-19T13:16:58.549Z,74.93
2022-10-19T13:17:58.480Z,75.33
2022-10-19T13:18:58.443Z,75.13
2022-10-19T13:19:58.551Z,75.13
2022-10-19T13:21:00.360Z,75.06
2022-10-19T13:21:58.405Z,75.16
2022-10-19T13:22:58.393Z,75.13
2022-10-19T13:23:58.444Z,75.26
2022-10-19T13:25:00.931Z,75.16
2022-10-19T13:25:59.362Z,75.16
2022-10-19T13:26:58.410Z,75.06
2022-10-19T13:27:58.341Z,74.66
2022-10-19T13:28:58.327Z,74.79
2022-10-19T13:29:58.441Z,75.06
2022-10-19T13:31:03.393Z,75.06
2022-10-19T13:31:59.282Z,75.06
2022-10-19T13:32:58.273Z,74.79
2022-10-19T13:33:58.268Z,75.10
2022-10-19T13:34:58.253Z,74.79
2022-10-19T13:35:58.288Z,74.69
2022-10-19T13:36:58.261Z,75.20
2022-10-19T13:37:58.218Z,75.20
2022-10-19T13:38:58.216Z,74.83
2022-10-19T13:39:58.243Z,75.20
2022-10-19T13:40:58.191Z,75.10
2022-10-19T13:41:58.211Z,74.83
2022-10-19T13:42:58.202Z,75.23